sensor_id;sensor_type;location;lat;lon;timestamp;P1;durP1;ratioP1;P2;durP2;ratioP2
21661;SDS011;10992;48.170;8.596;2023-07-13T00:01:49;3.13;;;1.80;;
21661;SDS011;10992;48.170;8.596;2023-07-13T00:04:19;3.00;;;1.48;;
21661;SDS011;10992;48.170;8.596;2023-07-13T00:06:47;3.15;;;1.70;;
21661;SDS011;10992;48.170;8.596;2023-07-13T00:09:14;3.00;;;1.90;;
21661;SDS011;10992;48.170;8.596;2023-07-13T00:11:43;3.22;;;1.75;;
21661;SDS011;10992;48.170;8.596;2023-07-13T00:14:10;3.22;;;1.52;;
21661;SDS011;10992;48.170;8.596;2023-07-13T00:16:38;3.25;;;1.40;;
21661;SDS011;10992;48.170;8.596;2023-07-13T00:19:10;2.67;;;1.30;;
21661;SDS011;10992;48.170;8.596;2023-07-13T00:21:38;2.35;;;1.30;;
21661;SDS011;10992;48.170;8.596;2023-07-13T00:24:07;2.70;;;1.20;;
21661;SDS011;10992;48.170;8.596;2023-07-13T00:26:38;1.58;;;1.00;;
21661;SDS011;10992;48.170;8.596;2023-07-13T00:29:06;3.53;;;1.70;;
21661;SDS011;10992;48.170;8.596;2023-07-13T00:31:35;1.35;;;1.00;;
21661;SDS011;10992;48.170;8.596;2023-07-13T00:34:03;1.80;;;1.38;;
21661;SDS011;10992;48.170;8.596;2023-07-13T00:36:30;2.47;;;1.52;;
21661;SDS011;10992;48.170;8.596;2023-07-13T00:38:58;3.78;;;1.33;;
21661;SDS011;10992;48.170;8.596;2023-07-13T00:41:25;2.38;;;1.13;;
21661;SDS011;10992;48.170;8.596;2023-07-13T00:43:52;1.67;;;1.25;;
21661;SDS011;10992;48.170;8.596;2023-07-13T00:46:24;1.70;;;1.20;;
21661;SDS011;10992;48.170;8.596;2023-07-13T00:48:51;1.75;;;0.95;;
21661;SDS011;10992;48.170;8.596;2023-07-13T00:51:27;3.83;;;1.30;;
21661;SDS011;10992;48.170;8.596;2023-07-13T00:54:00;3.53;;;1.60;;
21661;SDS011;10992;48.170;8.596;2023-07-13T00:56:31;1.60;;;1.25;;
21661;SDS011;10992;48.170;8.596;2023-07-13T00:58:59;2.58;;;1.30;;
21661;SDS011;10992;48.170;8.596;2023-07-13T01:01:29;2.15;;;1.17;;
21661;SDS011;10992;48.170;8.596;2023-07-13T01:03:56;2.58;;;1.50;;
21661;SDS011;10992;48.170;8.596;2023-07-13T01:06:24;2.88;;;1.50;;
21661;SDS011;10992;48.170;8.596;2023-07-13T01:08:51;3.00;;;1.92;;
21661;SDS011;10992;48.170;8.596;2023-07-13T01:11:19;5.10;;;1.85;;
21661;SDS011;10992;48.170;8.596;2023-07-13T01:13:48;3.80;;;2.08;;
21661;SDS011;10992;48.170;8.596;2023-07-13T01:16:22;3.97;;;1.95;;
21661;SDS011;10992;48.170;8.596;2023-07-13T01:18:53;3.58;;;2.30;;
21661;SDS011;10992;48.170;8.596;2023-07-13T01:21:25;4.05;;;2.20;;
21661;SDS011;10992;48.170;8.596;2023-07-13T01:23:52;2.17;;;1.60;;
21661;SDS011;10992;48.170;8.596;2023-07-13T01:26:20;2.15;;;1.50;;
21661;SDS011;10992;48.170;8.596;2023-07-13T01:28:47;2.42;;;1.75;;
21661;SDS011;10992;48.170;8.596;2023-07-13T01:31:14;3.30;;;1.85;;
21661;SDS011;10992;48.170;8.596;2023-07-13T01:33:41;1.88;;;1.42;;
21661;SDS011;10992;48.170;8.596;2023-07-13T01:36:09;4.30;;;1.55;;
21661;SDS011;10992;48.170;8.596;2023-07-13T01:38:37;3.30;;;1.77;;
21661;SDS011;10992;48.170;8.596;2023-07-13T01:41:03;2.28;;;1.67;;
21661;SDS011;10992;48.170;8.596;2023-07-13T01:43:30;3.83;;;1.65;;
21661;SDS011;10992;48.170;8.596;2023-07-13T01:45:58;2.75;;;1.40;;
21661;SDS011;10992;48.170;8.596;2023-07-13T01:48:45;3.00;;;1.45;;
21661;SDS011;10992;48.170;8.596;2023-07-13T01:51:12;3.10;;;1.35;;
21661;SDS011;10992;48.170;8.596;2023-07-13T01:53:39;2.63;;;1.75;;
21661;SDS011;10992;48.170;8.596;2023-07-13T01:56:07;4.35;;;1.90;;
21661;SDS011;10992;48.170;8.596;2023-07-13T01:58:34;2.92;;;1.80;;
21661;SDS011;10992;48.170;8.596;2023-07-13T02:01:01;2.67;;;1.70;;
21661;SDS011;10992;48.170;8.596;2023-07-13T02:03:28;2.67;;;1.55;;
21661;SDS011;10992;48.170;8.596;2023-07-13T02:05:57;2.92;;;1.63;;
21661;SDS011;10992;48.170;8.596;2023-07-13T02:08:24;1.50;;;1.20;;
21661;SDS011;10992;48.170;8.596;2023-07-13T02:10:51;4.47;;;1.73;;
21661;SDS011;10992;48.170;8.596;2023-07-13T02:13:18;3.80;;;2.03;;
21661;SDS011;10992;48.170;8.596;2023-07-13T02:15:45;3.33;;;1.50;;
21661;SDS011;10992;48.170;8.596;2023-07-13T02:18:12;2.50;;;1.50;;
21661;SDS011;10992;48.170;8.596;2023-07-13T02:20:43;2.10;;;1.20;;
21661;SDS011;10992;48.170;8.596;2023-07-13T02:23:10;3.65;;;1.13;;
21661;SDS011;10992;48.170;8.596;2023-07-13T02:25:38;1.90;;;1.35;;
21661;SDS011;10992;48.170;8.596;2023-07-13T02:28:04;2.75;;;1.65;;
21661;SDS011;10992;48.170;8.596;2023-07-13T02:30:31;1.73;;;1.33;;
21661;SDS011;10992;48.170;8.596;2023-07-13T02:32:58;3.22;;;1.75;;
21661;SDS011;10992;48.170;8.596;2023-07-13T02:35:25;3.25;;;1.58;;
21661;SDS011;10992;48.170;8.596;2023-07-13T02:37:52;3.40;;;1.52;;
21661;SDS011;10992;48.170;8.596;2023-07-13T02:40:19;2.83;;;1.20;;
21661;SDS011;10992;48.170;8.596;2023-07-13T02:42:47;3.58;;;1.65;;
21661;SDS011;10992;48.170;8.596;2023-07-13T02:45:14;2.42;;;1.58;;
21661;SDS011;10992;48.170;8.596;2023-07-13T02:47:41;4.85;;;1.33;;
21661;SDS011;10992;48.170;8.596;2023-07-13T02:50:10;3.42;;;1.45;;
21661;SDS011;10992;48.170;8.596;2023-07-13T02:52:37;5.35;;;1.40;;
21661;SDS011;10992;48.170;8.596;2023-07-13T02:55:04;1.88;;;1.25;;
21661;SDS011;10992;48.170;8.596;2023-07-13T02:57:31;2.67;;;1.05;;
21661;SDS011;10992;48.170;8.596;2023-07-13T02:59:59;4.95;;;1.38;;
21661;SDS011;10992;48.170;8.596;2023-07-13T03:02:27;2.97;;;1.45;;
21661;SDS011;10992;48.170;8.596;2023-07-13T03:04:55;2.17;;;1.30;;
21661;SDS011;10992;48.170;8.596;2023-07-13T03:07:23;2.25;;;1.10;;
21661;SDS011;10992;48.170;8.596;2023-07-13T03:09:56;2.28;;;1.33;;
21661;SDS011;10992;48.170;8.596;2023-07-13T03:12:29;4.68;;;1.52;;
21661;SDS011;10992;48.170;8.596;2023-07-13T03:14:57;3.03;;;1.50;;
21661;SDS011;10992;48.170;8.596;2023-07-13T03:17:24;2.72;;;1.63;;
21661;SDS011;10992;48.170;8.596;2023-07-13T03:19:51;2.80;;;1.30;;
21661;SDS011;10992;48.170;8.596;2023-07-13T03:22:18;2.80;;;1.25;;
21661;SDS011;10992;48.170;8.596;2023-07-13T03:24:45;2.60;;;1.10;;
21661;SDS011;10992;48.170;8.596;2023-07-13T03:27:12;2.92;;;1.30;;
21661;SDS011;10992;48.170;8.596;2023-07-13T03:29:42;3.17;;;1.33;;
21661;SDS011;10992;48.170;8.596;2023-07-13T03:32:10;3.22;;;1.67;;
21661;SDS011;10992;48.170;8.596;2023-07-13T03:34:37;3.00;;;1.38;;
21661;SDS011;10992;48.170;8.596;2023-07-13T03:37:04;1.80;;;1.20;;
21661;SDS011;10992;48.170;8.596;2023-07-13T03:39:35;4.18;;;1.88;;
21661;SDS011;10992;48.170;8.596;2023-07-13T03:42:02;2.40;;;1.40;;
21661;SDS011;10992;48.170;8.596;2023-07-13T03:44:29;3.75;;;1.13;;
21661;SDS011;10992;48.170;8.596;2023-07-13T03:46:56;2.80;;;1.60;;
21661;SDS011;10992;48.170;8.596;2023-07-13T03:49:23;2.75;;;1.30;;
21661;SDS011;10992;48.170;8.596;2023-07-13T03:51:51;2.33;;;1.17;;
21661;SDS011;10992;48.170;8.596;2023-07-13T03:54:20;3.33;;;1.50;;
21661;SDS011;10992;48.170;8.596;2023-07-13T03:56:47;2.20;;;1.27;;
21661;SDS011;10992;48.170;8.596;2023-07-13T03:59:15;4.43;;;1.33;;
21661;SDS011;10992;48.170;8.596;2023-07-13T04:01:43;5.20;;;1.30;;
21661;SDS011;10992;48.170;8.596;2023-07-13T04:04:11;3.22;;;1.30;;
21661;SDS011;10992;48.170;8.596;2023-07-13T04:06:38;1.98;;;1.27;;
21661;SDS011;10992;48.170;8.596;2023-07-13T04:09:05;2.28;;;1.25;;
21661;SDS011;10992;48.170;8.596;2023-07-13T04:11:33;2.25;;;1.30;;
21661;SDS011;10992;48.170;8.596;2023-07-13T04:14:00;4.38;;;1.67;;
21661;SDS011;10992;48.170;8.596;2023-07-13T04:16:27;3.53;;;1.63;;
21661;SDS011;10992;48.170;8.596;2023-07-13T04:18:54;3.60;;;1.33;;
21661;SDS011;10992;48.170;8.596;2023-07-13T04:21:26;4.15;;;1.30;;
21661;SDS011;10992;48.170;8.596;2023-07-13T04:23:54;4.25;;;1.30;;
21661;SDS011;10992;48.170;8.596;2023-07-13T04:26:22;4.93;;;1.98;;
21661;SDS011;10992;48.170;8.596;2023-07-13T04:28:50;4.00;;;1.42;;
21661;SDS011;10992;48.170;8.596;2023-07-13T04:31:17;4.35;;;1.50;;
21661;SDS011;10992;48.170;8.596;2023-07-13T04:33:44;4.65;;;1.55;;
21661;SDS011;10992;48.170;8.596;2023-07-13T04:36:14;4.55;;;1.77;;
21661;SDS011;10992;48.170;8.596;2023-07-13T04:38:42;2.92;;;1.73;;
21661;SDS011;10992;48.170;8.596;2023-07-13T04:41:09;3.22;;;1.50;;
21661;SDS011;10992;48.170;8.596;2023-07-13T04:43:36;5.70;;;1.67;;
21661;SDS011;10992;48.170;8.596;2023-07-13T04:46:03;4.57;;;1.63;;
21661;SDS011;10992;48.170;8.596;2023-07-13T04:48:37;7.57;;;1.55;;
21661;SDS011;10992;48.170;8.596;2023-07-13T04:51:04;5.18;;;1.60;;
21661;SDS011;10992;48.170;8.596;2023-07-13T04:53:32;4.65;;;1.70;;
21661;SDS011;10992;48.170;8.596;2023-07-13T04:56:01;11.82;;;2.00;;
21661;SDS011;10992;48.170;8.596;2023-07-13T04:58:29;8.65;;;1.70;;
21661;SDS011;10992;48.170;8.596;2023-07-13T05:01:00;6.72;;;1.77;;
21661;SDS011;10992;48.170;8.596;2023-07-13T05:03:28;6.60;;;1.60;;
21661;SDS011;10992;48.170;8.596;2023-07-13T05:05:56;8.27;;;1.65;;
21661;SDS011;10992;48.170;8.596;2023-07-13T05:08:24;5.10;;;1.98;;
21661;SDS011;10992;48.170;8.596;2023-07-13T05:10:52;3.88;;;2.10;;
21661;SDS011;10992;48.170;8.596;2023-07-13T05:13:19;7.05;;;1.95;;
21661;SDS011;10992;48.170;8.596;2023-07-13T05:16:05;9.43;;;2.42;;
21661;SDS011;10992;48.170;8.596;2023-07-13T05:18:34;12.73;;;2.58;;
21661;SDS011;10992;48.170;8.596;2023-07-13T05:21:03;11.55;;;1.92;;
21661;SDS011;10992;48.170;8.596;2023-07-13T05:23:32;11.60;;;2.17;;
21661;SDS011;10992;48.170;8.596;2023-07-13T05:26:01;12.80;;;2.10;;
21661;SDS011;10992;48.170;8.596;2023-07-13T05:28:28;11.95;;;1.92;;
21661;SDS011;10992;48.170;8.596;2023-07-13T05:30:56;5.38;;;1.42;;
21661;SDS011;10992;48.170;8.596;2023-07-13T05:33:23;8.48;;;1.80;;
21661;SDS011;10992;48.170;8.596;2023-07-13T05:35:51;7.25;;;1.88;;
21661;SDS011;10992;48.170;8.596;2023-07-13T05:38:18;6.97;;;1.48;;
21661;SDS011;10992;48.170;8.596;2023-07-13T05:40:45;3.67;;;1.58;;
21661;SDS011;10992;48.170;8.596;2023-07-13T05:43:13;4.00;;;1.80;;
21661;SDS011;10992;48.170;8.596;2023-07-13T05:45:40;5.13;;;1.60;;
21661;SDS011;10992;48.170;8.596;2023-07-13T05:48:07;3.30;;;1.30;;
21661;SDS011;10992;48.170;8.596;2023-07-13T05:50:34;3.17;;;1.42;;
21661;SDS011;10992;48.170;8.596;2023-07-13T05:53:01;3.67;;;1.33;;
21661;SDS011;10992;48.170;8.596;2023-07-13T05:55:28;4.82;;;1.40;;
21661;SDS011;10992;48.170;8.596;2023-07-13T05:57:55;6.90;;;1.23;;
21661;SDS011;10992;48.170;8.596;2023-07-13T06:00:24;3.72;;;1.20;;
21661;SDS011;10992;48.170;8.596;2023-07-13T06:02:51;3.70;;;1.00;;
21661;SDS011;10992;48.170;8.596;2023-07-13T06:05:19;6.80;;;2.00;;
21661;SDS011;10992;48.170;8.596;2023-07-13T06:07:46;4.53;;;1.42;;
21661;SDS011;10992;48.170;8.596;2023-07-13T06:10:13;2.50;;;0.80;;
21661;SDS011;10992;48.170;8.596;2023-07-13T06:12:39;5.45;;;1.02;;
21661;SDS011;10992;48.170;8.596;2023-07-13T06:15:06;9.07;;;1.73;;
21661;SDS011;10992;48.170;8.596;2023-07-13T06:17:34;3.42;;;1.02;;
21661;SDS011;10992;48.170;8.596;2023-07-13T06:20:01;2.47;;;0.95;;
21661;SDS011;10992;48.170;8.596;2023-07-13T06:22:28;2.25;;;0.80;;
21661;SDS011;10992;48.170;8.596;2023-07-13T06:24:56;2.70;;;0.95;;
21661;SDS011;10992;48.170;8.596;2023-07-13T06:27:23;2.92;;;0.90;;
21661;SDS011;10992;48.170;8.596;2023-07-13T06:29:50;2.08;;;0.65;;
21661;SDS011;10992;48.170;8.596;2023-07-13T06:32:17;3.45;;;0.73;;
21661;SDS011;10992;48.170;8.596;2023-07-13T06:34:43;7.10;;;0.60;;
21661;SDS011;10992;48.170;8.596;2023-07-13T06:37:11;3.08;;;0.80;;
21661;SDS011;10992;48.170;8.596;2023-07-13T06:39:37;2.33;;;0.82;;
21661;SDS011;10992;48.170;8.596;2023-07-13T06:42:05;4.53;;;0.85;;
21661;SDS011;10992;48.170;8.596;2023-07-13T06:44:32;5.10;;;0.95;;
21661;SDS011;10992;48.170;8.596;2023-07-13T06:46:59;2.53;;;0.75;;
21661;SDS011;10992;48.170;8.596;2023-07-13T06:49:26;3.88;;;1.00;;
21661;SDS011;10992;48.170;8.596;2023-07-13T06:51:52;3.80;;;0.70;;
21661;SDS011;10992;48.170;8.596;2023-07-13T06:54:19;2.55;;;1.10;;
21661;SDS011;10992;48.170;8.596;2023-07-13T06:56:46;4.85;;;1.38;;
21661;SDS011;10992;48.170;8.596;2023-07-13T06:59:13;1.73;;;0.73;;
21661;SDS011;10992;48.170;8.596;2023-07-13T07:01:40;2.42;;;0.95;;
21661;SDS011;10992;48.170;8.596;2023-07-13T07:04:07;1.42;;;0.70;;
21661;SDS011;10992;48.170;8.596;2023-07-13T07:06:35;4.20;;;0.85;;
21661;SDS011;10992;48.170;8.596;2023-07-13T07:09:02;2.13;;;0.73;;
21661;SDS011;10992;48.170;8.596;2023-07-13T07:11:29;3.08;;;0.90;;
21661;SDS011;10992;48.170;8.596;2023-07-13T07:13:55;2.05;;;1.10;;
21661;SDS011;10992;48.170;8.596;2023-07-13T07:16:24;2.40;;;0.82;;
21661;SDS011;10992;48.170;8.596;2023-07-13T07:18:51;2.55;;;0.70;;
21661;SDS011;10992;48.170;8.596;2023-07-13T07:21:18;4.30;;;0.80;;
21661;SDS011;10992;48.170;8.596;2023-07-13T07:23:45;4.55;;;1.13;;
21661;SDS011;10992;48.170;8.596;2023-07-13T07:26:12;3.30;;;0.95;;
21661;SDS011;10992;48.170;8.596;2023-07-13T07:28:39;5.10;;;0.77;;
21661;SDS011;10992;48.170;8.596;2023-07-13T07:31:12;2.65;;;0.70;;
21661;SDS011;10992;48.170;8.596;2023-07-13T07:33:41;2.03;;;0.70;;
21661;SDS011;10992;48.170;8.596;2023-07-13T07:36:09;4.28;;;0.70;;
21661;SDS011;10992;48.170;8.596;2023-07-13T07:38:39;1.70;;;0.60;;
21661;SDS011;10992;48.170;8.596;2023-07-13T07:41:06;3.70;;;0.80;;
21661;SDS011;10992;48.170;8.596;2023-07-13T07:43:36;2.67;;;0.70;;
21661;SDS011;10992;48.170;8.596;2023-07-13T07:46:03;2.80;;;0.90;;
21661;SDS011;10992;48.170;8.596;2023-07-13T07:48:30;2.92;;;0.82;;
21661;SDS011;10992;48.170;8.596;2023-07-13T07:50:57;1.90;;;0.70;;
21661;SDS011;10992;48.170;8.596;2023-07-13T07:53:24;2.10;;;0.55;;
21661;SDS011;10992;48.170;8.596;2023-07-13T07:55:51;2.92;;;0.70;;
21661;SDS011;10992;48.170;8.596;2023-07-13T07:58:21;3.08;;;0.98;;
21661;SDS011;10992;48.170;8.596;2023-07-13T08:00:51;3.15;;;0.90;;
21661;SDS011;10992;48.170;8.596;2023-07-13T08:03:21;1.42;;;0.70;;
21661;SDS011;10992;48.170;8.596;2023-07-13T08:05:54;1.98;;;0.57;;
21661;SDS011;10992;48.170;8.596;2023-07-13T08:08:24;2.80;;;0.80;;
21661;SDS011;10992;48.170;8.596;2023-07-13T08:10:51;1.95;;;0.60;;
21661;SDS011;10992;48.170;8.596;2023-07-13T08:13:24;3.28;;;0.60;;
21661;SDS011;10992;48.170;8.596;2023-07-13T08:15:51;3.20;;;1.33;;
21661;SDS011;10992;48.170;8.596;2023-07-13T08:18:18;2.53;;;0.80;;
21661;SDS011;10992;48.170;8.596;2023-07-13T08:20:45;1.70;;;0.68;;
21661;SDS011;10992;48.170;8.596;2023-07-13T08:23:12;4.70;;;0.93;;
21661;SDS011;10992;48.170;8.596;2023-07-13T08:25:39;2.75;;;0.60;;
21661;SDS011;10992;48.170;8.596;2023-07-13T08:28:06;6.00;;;0.90;;
21661;SDS011;10992;48.170;8.596;2023-07-13T08:30:32;1.98;;;0.90;;
21661;SDS011;10992;48.170;8.596;2023-07-13T08:33:00;3.33;;;0.70;;
21661;SDS011;10992;48.170;8.596;2023-07-13T08:35:27;4.68;;;0.73;;
21661;SDS011;10992;48.170;8.596;2023-07-13T08:37:54;8.57;;;1.35;;
21661;SDS011;10992;48.170;8.596;2023-07-13T08:40:23;2.67;;;0.73;;
21661;SDS011;10992;48.170;8.596;2023-07-13T08:42:56;2.58;;;0.70;;
21661;SDS011;10992;48.170;8.596;2023-07-13T08:48:28;2.92;;;0.90;;
21661;SDS011;10992;48.170;8.596;2023-07-13T08:51:12;2.80;;;0.82;;
21661;SDS011;10992;48.170;8.596;2023-07-13T08:54:00;5.55;;;1.10;;
21661;SDS011;10992;48.170;8.596;2023-07-13T08:56:30;2.13;;;1.08;;
21661;SDS011;10992;48.170;8.596;2023-07-13T08:59:16;3.95;;;0.90;;
21661;SDS011;10992;48.170;8.596;2023-07-13T09:01:50;4.55;;;0.85;;
21661;SDS011;10992;48.170;8.596;2023-07-13T09:04:37;2.22;;;0.82;;
21661;SDS011;10992;48.170;8.596;2023-07-13T09:07:56;1.58;;;0.80;;
21661;SDS011;10992;48.170;8.596;2023-07-13T09:15:31;1.40;;;0.68;;
21661;SDS011;10992;48.170;8.596;2023-07-13T09:18:03;2.17;;;0.80;;
21661;SDS011;10992;48.170;8.596;2023-07-13T09:23:07;2.92;;;0.73;;
21661;SDS011;10992;48.170;8.596;2023-07-13T09:25:39;3.45;;;1.38;;
21661;SDS011;10992;48.170;8.596;2023-07-13T09:33:27;2.72;;;1.02;;
21661;SDS011;10992;48.170;8.596;2023-07-13T09:35:57;2.40;;;0.90;;
21661;SDS011;10992;48.170;8.596;2023-07-13T09:38:26;3.92;;;1.00;;
21661;SDS011;10992;48.170;8.596;2023-07-13T09:46:32;2.03;;;0.88;;
21661;SDS011;10992;48.170;8.596;2023-07-13T09:48:59;3.22;;;1.02;;
21661;SDS011;10992;48.170;8.596;2023-07-13T09:51:25;3.05;;;0.77;;
21661;SDS011;10992;48.170;8.596;2023-07-13T09:53:53;1.65;;;0.98;;
21661;SDS011;10992;48.170;8.596;2023-07-13T09:58:48;1.98;;;0.80;;
21661;SDS011;10992;48.170;8.596;2023-07-13T10:01:16;2.03;;;0.98;;
21661;SDS011;10992;48.170;8.596;2023-07-13T10:03:59;2.15;;;0.82;;
21661;SDS011;10992;48.170;8.596;2023-07-13T10:06:25;4.32;;;1.00;;
21661;SDS011;10992;48.170;8.596;2023-07-13T10:08:53;2.10;;;0.77;;
21661;SDS011;10992;48.170;8.596;2023-07-13T10:11:26;2.28;;;1.00;;
21661;SDS011;10992;48.170;8.596;2023-07-13T10:13:58;2.17;;;0.95;;
21661;SDS011;10992;48.170;8.596;2023-07-13T10:16:30;2.22;;;0.90;;
21661;SDS011;10992;48.170;8.596;2023-07-13T10:19:14;2.28;;;0.88;;
21661;SDS011;10992;48.170;8.596;2023-07-13T10:21:55;4.05;;;1.00;;
21661;SDS011;10992;48.170;8.596;2023-07-13T10:24:26;2.42;;;0.80;;
21661;SDS011;10992;48.170;8.596;2023-07-13T10:29:27;1.55;;;0.73;;
21661;SDS011;10992;48.170;8.596;2023-07-13T10:31:55;3.80;;;0.82;;
21661;SDS011;10992;48.170;8.596;2023-07-13T10:34:23;1.08;;;0.60;;
21661;SDS011;10992;48.170;8.596;2023-07-13T10:36:51;3.10;;;0.90;;
21661;SDS011;10992;48.170;8.596;2023-07-13T10:39:21;3.45;;;1.25;;
21661;SDS011;10992;48.170;8.596;2023-07-13T10:41:54;1.83;;;0.60;;
21661;SDS011;10992;48.170;8.596;2023-07-13T10:44:29;1.67;;;0.75;;
21661;SDS011;10992;48.170;8.596;2023-07-13T10:46:58;3.92;;;1.02;;
21661;SDS011;10992;48.170;8.596;2023-07-13T10:49:34;1.17;;;0.65;;
21661;SDS011;10992;48.170;8.596;2023-07-13T10:52:03;2.42;;;0.70;;
21661;SDS011;10992;48.170;8.596;2023-07-13T10:54:31;1.02;;;0.70;;
21661;SDS011;10992;48.170;8.596;2023-07-13T10:59:48;1.98;;;0.90;;
21661;SDS011;10992;48.170;8.596;2023-07-13T11:02:55;2.83;;;0.80;;
21661;SDS011;10992;48.170;8.596;2023-07-13T11:07:52;2.50;;;0.77;;
21661;SDS011;10992;48.170;8.596;2023-07-13T11:10:47;4.45;;;1.10;;
21661;SDS011;10992;48.170;8.596;2023-07-13T11:13:35;3.95;;;0.75;;
21661;SDS011;10992;48.170;8.596;2023-07-13T11:21:19;2.10;;;0.65;;
21661;SDS011;10992;48.170;8.596;2023-07-13T11:24:04;1.92;;;0.70;;
21661;SDS011;10992;48.170;8.596;2023-07-13T11:26:55;2.95;;;0.80;;
21661;SDS011;10992;48.170;8.596;2023-07-13T11:29:27;1.30;;;0.52;;
21661;SDS011;10992;48.170;8.596;2023-07-13T11:32:20;1.83;;;0.73;;
21661;SDS011;10992;48.170;8.596;2023-07-13T11:34:50;1.70;;;0.77;;
21661;SDS011;10992;48.170;8.596;2023-07-13T11:37:17;1.60;;;0.68;;
21661;SDS011;10992;48.170;8.596;2023-07-13T11:39:45;2.55;;;0.70;;
21661;SDS011;10992;48.170;8.596;2023-07-13T11:42:15;2.25;;;0.57;;
21661;SDS011;10992;48.170;8.596;2023-07-13T11:44:45;1.45;;;0.50;;
21661;SDS011;10992;48.170;8.596;2023-07-13T11:47:33;1.67;;;0.50;;
21661;SDS011;10992;48.170;8.596;2023-07-13T11:50:00;2.22;;;0.80;;
21661;SDS011;10992;48.170;8.596;2023-07-13T11:52:34;1.35;;;0.60;;
21661;SDS011;10992;48.170;8.596;2023-07-13T11:55:04;2.22;;;0.60;;
21661;SDS011;10992;48.170;8.596;2023-07-13T11:57:59;4.35;;;0.80;;
21661;SDS011;10992;48.170;8.596;2023-07-13T12:00:28;2.90;;;0.80;;
21661;SDS011;10992;48.170;8.596;2023-07-13T12:03:00;1.90;;;0.57;;
21661;SDS011;10992;48.170;8.596;2023-07-13T12:05:31;1.40;;;0.63;;
21661;SDS011;10992;48.170;8.596;2023-07-13T12:07:59;1.08;;;0.60;;
21661;SDS011;10992;48.170;8.596;2023-07-13T12:10:34;1.50;;;0.60;;
21661;SDS011;10992;48.170;8.596;2023-07-13T12:13:02;1.27;;;0.50;;
21661;SDS011;10992;48.170;8.596;2023-07-13T12:15:36;2.72;;;0.68;;
21661;SDS011;10992;48.170;8.596;2023-07-13T12:20:45;1.95;;;0.80;;
21661;SDS011;10992;48.170;8.596;2023-07-13T12:23:24;1.70;;;0.60;;
21661;SDS011;10992;48.170;8.596;2023-07-13T12:25:54;1.55;;;0.70;;
21661;SDS011;10992;48.170;8.596;2023-07-13T12:28:33;2.35;;;0.80;;
21661;SDS011;10992;48.170;8.596;2023-07-13T12:31:01;2.45;;;0.90;;
21661;SDS011;10992;48.170;8.596;2023-07-13T12:33:30;1.73;;;0.75;;
21661;SDS011;10992;48.170;8.596;2023-07-13T12:36:03;1.75;;;0.73;;
21661;SDS011;10992;48.170;8.596;2023-07-13T12:38:32;1.75;;;0.80;;
21661;SDS011;10992;48.170;8.596;2023-07-13T12:41:00;1.30;;;0.70;;
21661;SDS011;10992;48.170;8.596;2023-07-13T12:43:31;2.42;;;0.70;;
21661;SDS011;10992;48.170;8.596;2023-07-13T12:46:04;2.67;;;0.70;;
21661;SDS011;10992;48.170;8.596;2023-07-13T12:48:42;2.45;;;0.80;;
21661;SDS011;10992;48.170;8.596;2023-07-13T12:51:24;2.33;;;0.93;;
21661;SDS011;10992;48.170;8.596;2023-07-13T12:53:57;2.50;;;0.90;;
21661;SDS011;10992;48.170;8.596;2023-07-13T12:56:32;4.05;;;0.88;;
21661;SDS011;10992;48.170;8.596;2023-07-13T12:59:01;1.45;;;0.80;;
21661;SDS011;10992;48.170;8.596;2023-07-13T13:01:31;2.15;;;0.80;;
21661;SDS011;10992;48.170;8.596;2023-07-13T13:04:03;1.63;;;0.60;;
21661;SDS011;10992;48.170;8.596;2023-07-13T13:06:33;2.65;;;0.88;;
21661;SDS011;10992;48.170;8.596;2023-07-13T13:09:02;2.03;;;0.90;;
21661;SDS011;10992;48.170;8.596;2023-07-13T13:11:31;3.17;;;0.73;;
21661;SDS011;10992;48.170;8.596;2023-07-13T13:13:58;10.75;;;1.08;;
21661;SDS011;10992;48.170;8.596;2023-07-13T13:16:35;2.05;;;0.98;;
21661;SDS011;10992;48.170;8.596;2023-07-13T13:19:19;2.10;;;0.70;;
21661;SDS011;10992;48.170;8.596;2023-07-13T13:21:48;2.38;;;0.98;;
21661;SDS011;10992;48.170;8.596;2023-07-13T13:24:22;3.28;;;0.75;;
21661;SDS011;10992;48.170;8.596;2023-07-13T13:26:51;3.95;;;0.80;;
21661;SDS011;10992;48.170;8.596;2023-07-13T13:29:20;3.70;;;0.82;;
21661;SDS011;10992;48.170;8.596;2023-07-13T13:31:53;2.90;;;0.90;;
21661;SDS011;10992;48.170;8.596;2023-07-13T13:34:22;1.83;;;0.85;;
21661;SDS011;10992;48.170;8.596;2023-07-13T13:36:50;1.38;;;0.73;;
21661;SDS011;10992;48.170;8.596;2023-07-13T13:39:25;1.83;;;0.50;;
21661;SDS011;10992;48.170;8.596;2023-07-13T13:41:58;1.92;;;0.60;;
21661;SDS011;10992;48.170;8.596;2023-07-13T13:44:25;1.92;;;0.73;;
21661;SDS011;10992;48.170;8.596;2023-07-13T13:46:52;1.75;;;0.63;;
21661;SDS011;10992;48.170;8.596;2023-07-13T13:49:24;2.15;;;1.10;;
21661;SDS011;10992;48.170;8.596;2023-07-13T13:51:53;3.05;;;0.85;;
21661;SDS011;10992;48.170;8.596;2023-07-13T13:54:21;4.47;;;1.17;;
21661;SDS011;10992;48.170;8.596;2023-07-13T13:56:50;3.35;;;0.93;;
21661;SDS011;10992;48.170;8.596;2023-07-13T13:59:18;1.10;;;0.60;;
21661;SDS011;10992;48.170;8.596;2023-07-13T14:01:46;2.67;;;0.90;;
21661;SDS011;10992;48.170;8.596;2023-07-13T14:04:17;3.97;;;0.98;;
21661;SDS011;10992;48.170;8.596;2023-07-13T14:06:45;1.73;;;0.80;;
21661;SDS011;10992;48.170;8.596;2023-07-13T14:09:15;6.18;;;1.02;;
21661;SDS011;10992;48.170;8.596;2023-07-13T14:11:44;3.33;;;1.00;;
21661;SDS011;10992;48.170;8.596;2023-07-13T14:14:17;3.67;;;0.85;;
21661;SDS011;10992;48.170;8.596;2023-07-13T14:16:46;1.33;;;0.82;;
21661;SDS011;10992;48.170;8.596;2023-07-13T14:19:19;1.10;;;0.57;;
21661;SDS011;10992;48.170;8.596;2023-07-13T14:21:47;3.92;;;1.20;;
21661;SDS011;10992;48.170;8.596;2023-07-13T14:24:16;3.17;;;0.90;;
21661;SDS011;10992;48.170;8.596;2023-07-13T14:26:43;1.70;;;0.95;;
21661;SDS011;10992;48.170;8.596;2023-07-13T14:29:12;4.00;;;1.08;;
21661;SDS011;10992;48.170;8.596;2023-07-13T14:31:41;2.15;;;0.80;;
21661;SDS011;10992;48.170;8.596;2023-07-13T14:34:12;2.70;;;0.98;;
21661;SDS011;10992;48.170;8.596;2023-07-13T14:36:44;2.40;;;0.98;;
21661;SDS011;10992;48.170;8.596;2023-07-13T14:39:20;2.17;;;0.93;;
21661;SDS011;10992;48.170;8.596;2023-07-13T14:41:52;7.10;;;0.98;;
21661;SDS011;10992;48.170;8.596;2023-07-13T14:44:26;3.05;;;1.10;;
21661;SDS011;10992;48.170;8.596;2023-07-13T14:46:58;3.58;;;0.90;;
21661;SDS011;10992;48.170;8.596;2023-07-13T14:49:37;2.08;;;0.93;;
21661;SDS011;10992;48.170;8.596;2023-07-13T14:52:13;3.47;;;0.80;;
21661;SDS011;10992;48.170;8.596;2023-07-13T14:54:42;5.75;;;0.75;;
21661;SDS011;10992;48.170;8.596;2023-07-13T14:57:11;3.00;;;0.82;;
21661;SDS011;10992;48.170;8.596;2023-07-13T14:59:39;1.70;;;0.50;;
21661;SDS011;10992;48.170;8.596;2023-07-13T15:04:43;1.65;;;0.90;;
21661;SDS011;10992;48.170;8.596;2023-07-13T15:07:10;2.17;;;1.00;;
21661;SDS011;10992;48.170;8.596;2023-07-13T15:09:39;2.85;;;1.00;;
21661;SDS011;10992;48.170;8.596;2023-07-13T15:12:06;3.90;;;0.93;;
21661;SDS011;10992;48.170;8.596;2023-07-13T15:14:33;3.10;;;0.90;;
21661;SDS011;10992;48.170;8.596;2023-07-13T15:17:00;1.60;;;0.80;;
21661;SDS011;10992;48.170;8.596;2023-07-13T15:19:27;3.08;;;0.80;;
21661;SDS011;10992;48.170;8.596;2023-07-13T15:21:55;1.77;;;0.85;;
21661;SDS011;10992;48.170;8.596;2023-07-13T15:24:24;4.03;;;0.93;;
21661;SDS011;10992;48.170;8.596;2023-07-13T15:26:51;2.67;;;0.88;;
21661;SDS011;10992;48.170;8.596;2023-07-13T15:29:18;2.13;;;0.80;;
21661;SDS011;10992;48.170;8.596;2023-07-13T15:31:45;2.88;;;1.27;;
21661;SDS011;10992;48.170;8.596;2023-07-13T15:34:16;3.20;;;1.00;;
21661;SDS011;10992;48.170;8.596;2023-07-13T15:36:47;2.78;;;1.05;;
21661;SDS011;10992;48.170;8.596;2023-07-13T15:39:15;3.08;;;1.00;;
21661;SDS011;10992;48.170;8.596;2023-07-13T15:41:43;4.60;;;1.25;;
21661;SDS011;10992;48.170;8.596;2023-07-13T15:46:49;4.15;;;1.10;;
21661;SDS011;10992;48.170;8.596;2023-07-13T15:49:16;3.65;;;1.13;;